sensor_id;sensor_type;location;lat;lon;timestamp;pressure;altitude;pressure_sealevel;temperature;humidity
27304;BME280;14791;52.392;13.092;2022-12-29T00:01:17;100232.63;;;13.42;53.05
27304;BME280;14791;52.392;13.092;2022-12-29T00:03:46;100222.73;;;13.43;53.04
27304;BME280;14791;52.392;13.092;2022-12-29T00:06:15;100219.45;;;13.45;53.07
27304;BME280;14791;52.392;13.092;2022-12-29T00:08:44;100222.86;;;13.47;53.11
27304;BME280;14791;52.392;13.092;2022-12-29T00:11:16;100218.22;;;13.49;53.07
27304;BME280;14791;52.392;13.092;2022-12-29T00:13:45;100211.87;;;13.50;53.05
27304;BME280;14791;52.392;13.092;2022-12-29T00:16:33;100209.91;;;13.52;52.99
27304;BME280;14791;52.392;13.092;2022-12-29T00:19:03;100203.94;;;13.54;52.92
27304;BME280;14791;52.392;13.092;2022-12-29T00:21:32;100208.31;;;13.55;52.90
27304;BME280;14791;52.392;13.092;2022-12-29T00:24:20;100209.54;;;13.56;52.87
27304;BME280;14791;52.392;13.092;2022-12-29T00:29:52;100198.69;;;13.58;52.94
27304;BME280;14791;52.392;13.092;2022-12-29T00:32:39;100202.11;;;13.60;52.92
27304;BME280;14791;52.392;13.092;2022-12-29T00:35:35;100198.43;;;13.61;52.90
27304;BME280;14791;52.392;13.092;2022-12-29T00:38:05;100181.34;;;13.62;52.81
27304;BME280;14791;52.392;13.092;2022-12-29T00:40:53;100175.97;;;13.62;52.81
27304;BME280;14791;52.392;13.092;2022-12-29T00:43:39;100196.47;;;13.63;52.70
27304;BME280;14791;52.392;13.092;2022-12-29T00:46:16;100189.39;;;13.62;52.69
27304;BME280;14791;52.392;13.092;2022-12-29T00:48:45;100183.67;;;13.61;52.70
27304;BME280;14791;52.392;13.092;2022-12-29T00:51:32;100170.52;;;13.58;52.79
27304;BME280;14791;52.392;13.092;2022-12-29T00:54:00;100200.50;;;13.57;52.79
27304;BME280;14791;52.392;13.092;2022-12-29T00:56:30;100188.19;;;13.55;52.83
27304;BME280;14791;52.392;13.092;2022-12-29T00:59:04;100181.25;;;13.52;52.82
27304;BME280;14791;52.392;13.092;2022-12-29T01:01:34;100175.30;;;13.49;52.80
27304;BME280;14791;52.392;13.092;2022-12-29T01:04:04;100177.60;;;13.48;52.85
27304;BME280;14791;52.392;13.092;2022-12-29T01:06:34;100181.28;;;13.47;52.95
27304;BME280;14791;52.392;13.092;2022-12-29T01:09:04;100177.86;;;13.45;52.94
27304;BME280;14791;52.392;13.092;2022-12-29T01:11:51;100174.83;;;13.44;52.90
27304;BME280;14791;52.392;13.092;2022-12-29T01:14:20;100177.98;;;13.43;52.88
27304;BME280;14791;52.392;13.092;2022-12-29T01:16:49;100169.59;;;13.42;52.93
27304;BME280;14791;52.392;13.092;2022-12-29T01:19:19;100171.77;;;13.43;52.95
27304;BME280;14791;52.392;13.092;2022-12-29T01:21:49;100173.84;;;13.45;52.92
27304;BME280;14791;52.392;13.092;2022-12-29T01:24:20;100179.44;;;13.47;53.03
27304;BME280;14791;52.392;13.092;2022-12-29T01:26:49;100178.48;;;13.48;53.04
27304;BME280;14791;52.392;13.092;2022-12-29T01:29:18;100180.67;;;13.49;52.95
27304;BME280;14791;52.392;13.092;2022-12-29T01:31:47;100177.98;;;13.49;52.96
27304;BME280;14791;52.392;13.092;2022-12-29T01:34:17;100179.94;;;13.47;52.97
27304;BME280;14791;52.392;13.092;2022-12-29T01:36:46;100181.05;;;13.44;53.00
27304;BME280;14791;52.392;13.092;2022-12-29T01:39:15;100169.09;;;13.43;53.06
27304;BME280;14791;52.392;13.092;2022-12-29T01:41:44;100172.03;;;13.39;53.20
27304;BME280;14791;52.392;13.092;2022-12-29T01:50:04;100170.22;;;13.34;53.25
27304;BME280;14791;52.392;13.092;2022-12-29T01:52:36;100160.95;;;13.33;53.27
27304;BME280;14791;52.392;13.092;2022-12-29T01:55:06;100155.73;;;13.31;53.31
27304;BME280;14791;52.392;13.092;2022-12-29T01:57:39;100146.46;;;13.30;53.45
27304;BME280;14791;52.392;13.092;2022-12-29T02:00:11;100143.28;;;13.30;53.41
27304;BME280;14791;52.392;13.092;2022-12-29T02:02:44;100153.40;;;13.32;53.31
27304;BME280;14791;52.392;13.092;2022-12-29T02:05:27;100143.40;;;13.34;53.24
27304;BME280;14791;52.392;13.092;2022-12-29T02:07:45;100138.77;;;13.36;53.18
27304;BME280;14791;52.392;13.092;2022-12-29T02:10:15;100142.88;;;13.40;53.07
27304;BME280;14791;52.392;13.092;2022-12-29T02:12:45;100140.92;;;13.43;53.00
27304;BME280;14791;52.392;13.092;2022-12-29T02:15:15;100134.33;;;13.47;52.96
27304;BME280;14791;52.392;13.092;2022-12-29T02:17:54;100132.61;;;13.51;52.89
27304;BME280;14791;52.392;13.092;2022-12-29T02:31:37;100131.77;;;13.77;52.43
27304;BME280;14791;52.392;13.092;2022-12-29T02:34:09;100124.05;;;13.84;52.39
27304;BME280;14791;52.392;13.092;2022-12-29T02:37:02;100113.88;;;13.88;52.28
27304;BME280;14791;52.392;13.092;2022-12-29T02:39:46;100114.34;;;13.93;52.23
27304;BME280;14791;52.392;13.092;2022-12-29T02:45:17;100113.55;;;14.02;52.02
27304;BME280;14791;52.392;13.092;2022-12-29T02:48:04;100118.03;;;14.07;51.98
27304;BME280;14791;52.392;13.092;2022-12-29T02:50:39;100118.98;;;14.12;51.87
27304;BME280;14791;52.392;13.092;2022-12-29T02:53:17;100113.71;;;14.16;51.77
27304;BME280;14791;52.392;13.092;2022-12-29T02:55:48;100102.92;;;14.21;51.64
27304;BME280;14791;52.392;13.092;2022-12-29T02:58:19;100096.42;;;14.24;51.54
27304;BME280;14791;52.392;13.092;2022-12-29T03:03:48;100093.72;;;14.30;51.48
27304;BME280;14791;52.392;13.092;2022-12-29T03:06:33;100093.94;;;14.32;51.49
27304;BME280;14791;52.392;13.092;2022-12-29T03:09:20;100094.51;;;14.36;51.45
27304;BME280;14791;52.392;13.092;2022-12-29T03:11:58;100082.52;;;14.40;51.37
27304;BME280;14791;52.392;13.092;2022-12-29T03:17:45;100077.68;;;14.49;51.26
27304;BME280;14791;52.392;13.092;2022-12-29T03:20:14;100083.77;;;14.51;51.16
27304;BME280;14791;52.392;13.092;2022-12-29T03:22:44;100084.02;;;14.54;51.12
27304;BME280;14791;52.392;13.092;2022-12-29T03:25:22;100073.50;;;14.56;51.07
27304;BME280;14791;52.392;13.092;2022-12-29T03:28:03;100070.18;;;14.58;51.05
27304;BME280;14791;52.392;13.092;2022-12-29T03:30:34;100087.37;;;14.61;50.94
27304;BME280;14791;52.392;13.092;2022-12-29T03:33:07;100071.58;;;14.62;50.91
27304;BME280;14791;52.392;13.092;2022-12-29T03:35:40;100068.27;;;14.64;50.88
27304;BME280;14791;52.392;13.092;2022-12-29T03:41:04;100061.64;;;14.68;50.75
27304;BME280;14791;52.392;13.092;2022-12-29T03:43:34;100059.30;;;14.70;50.76
27304;BME280;14791;52.392;13.092;2022-12-29T03:46:03;100082.52;;;14.71;50.69
27304;BME280;14791;52.392;13.092;2022-12-29T03:48:33;100074.30;;;14.72;50.65
27304;BME280;14791;52.392;13.092;2022-12-29T03:51:02;100079.55;;;14.74;50.62
27304;BME280;14791;52.392;13.092;2022-12-29T03:53:31;100081.23;;;14.75;50.58
27304;BME280;14791;52.392;13.092;2022-12-29T03:56:00;100086.98;;;14.76;50.61
27304;BME280;14791;52.392;13.092;2022-12-29T03:58:31;100079.27;;;14.77;50.62
27304;BME280;14791;52.392;13.092;2022-12-29T04:01:02;100074.61;;;14.79;50.60
27304;BME280;14791;52.392;13.092;2022-12-29T04:03:31;100075.33;;;14.81;50.57
27304;BME280;14791;52.392;13.092;2022-12-29T04:05:59;100067.48;;;14.83;50.57
27304;BME280;14791;52.392;13.092;2022-12-29T04:08:30;100066.97;;;14.84;50.57
27304;BME280;14791;52.392;13.092;2022-12-29T04:10:59;100063.81;;;14.84;50.51
27304;BME280;14791;52.392;13.092;2022-12-29T04:13:28;100066.72;;;14.87;50.45
27304;BME280;14791;52.392;13.092;2022-12-29T04:15:57;100054.63;;;14.87;50.46
27304;BME280;14791;52.392;13.092;2022-12-29T04:18:26;100073.16;;;14.90;50.41
27304;BME280;14791;52.392;13.092;2022-12-29T04:20:56;100080.72;;;14.91;50.40
27304;BME280;14791;52.392;13.092;2022-12-29T04:23:30;100085.59;;;14.91;50.34
27304;BME280;14791;52.392;13.092;2022-12-29T04:26:00;100070.81;;;14.91;50.34
27304;BME280;14791;52.392;13.092;2022-12-29T04:28:30;100067.99;;;14.93;50.33
27304;BME280;14791;52.392;13.092;2022-12-29T04:31:17;100058.08;;;14.93;50.31
27304;BME280;14791;52.392;13.092;2022-12-29T04:33:47;100051.73;;;14.94;50.30
27304;BME280;14791;52.392;13.092;2022-12-29T04:36:16;100051.23;;;14.95;50.27
27304;BME280;14791;52.392;13.092;2022-12-29T04:38:45;100060.48;;;14.96;50.24
27304;BME280;14791;52.392;13.092;2022-12-29T04:41:14;100058.17;;;14.97;50.22
27304;BME280;14791;52.392;13.092;2022-12-29T04:43:43;100054.13;;;14.97;50.23
27304;BME280;14791;52.392;13.092;2022-12-29T04:46:19;100050.44;;;14.98;50.24
27304;BME280;14791;52.392;13.092;2022-12-29T04:48:56;100060.23;;;14.99;50.23
27304;BME280;14791;52.392;13.092;2022-12-29T04:51:35;100039.90;;;15.01;50.24
27304;BME280;14791;52.392;13.092;2022-12-29T04:54:04;100049.81;;;15.00;50.28
27304;BME280;14791;52.392;13.092;2022-12-29T04:56:34;100052.21;;;15.03;50.28
27304;BME280;14791;52.392;13.092;2022-12-29T04:59:03;100054.27;;;15.05;50.27
27304;BME280;14791;52.392;13.092;2022-12-29T05:01:32;100055.98;;;15.06;50.30
27304;BME280;14791;52.392;13.092;2022-12-29T05:04:01;100048.64;;;15.08;50.29
27304;BME280;14791;52.392;13.092;2022-12-29T05:06:30;100052.38;;;15.12;50.31
27304;BME280;14791;52.392;13.092;2022-12-29T05:08:59;100047.72;;;15.14;50.30
27304;BME280;14791;52.392;13.092;2022-12-29T05:11:27;100031.28;;;15.17;50.27
27304;BME280;14791;52.392;13.092;2022-12-29T05:13:58;100022.21;;;15.18;50.26
27304;BME280;14791;52.392;13.092;2022-12-29T05:16:27;100036.75;;;15.21;50.28
27304;BME280;14791;52.392;13.092;2022-12-29T05:18:56;100034.40;;;15.22;50.28
27304;BME280;14791;52.392;13.092;2022-12-29T05:21:25;100029.09;;;15.26;50.27
27304;BME280;14791;52.392;13.092;2022-12-29T05:23:55;100014.52;;;15.28;50.23
27304;BME280;14791;52.392;13.092;2022-12-29T05:26:25;100021.58;;;15.29;50.22
27304;BME280;14791;52.392;13.092;2022-12-29T05:28:58;100020.09;;;15.31;50.26
27304;BME280;14791;52.392;13.092;2022-12-29T05:31:27;100014.42;;;15.34;50.23
27304;BME280;14791;52.392;13.092;2022-12-29T05:33:56;100016.14;;;15.35;50.22
27304;BME280;14791;52.392;13.092;2022-12-29T05:36:27;100006.56;;;15.37;50.20
27304;BME280;14791;52.392;13.092;2022-12-29T05:38:57;100013.50;;;15.39;50.16
27304;BME280;14791;52.392;13.092;2022-12-29T05:41:26;100022.44;;;15.40;50.18
27304;BME280;14791;52.392;13.092;2022-12-29T05:44:03;100011.52;;;15.41;50.19
27304;BME280;14791;52.392;13.092;2022-12-29T05:46:34;100004.86;;;15.45;50.14
27304;BME280;14791;52.392;13.092;2022-12-29T05:49:07;100007.55;;;15.45;50.11
27304;BME280;14791;52.392;13.092;2022-12-29T05:51:37;100002.87;;;15.47;50.11
27304;BME280;14791;52.392;13.092;2022-12-29T05:54:07;99995.98;;;15.49;50.14
27304;BME280;14791;52.392;13.092;2022-12-29T05:56:37;100003.42;;;15.51;50.16
27304;BME280;14791;52.392;13.092;2022-12-29T05:59:06;100005.85;;;15.54;50.13
27304;BME280;14791;52.392;13.092;2022-12-29T06:01:35;99996.27;;;15.56;50.12
27304;BME280;14791;52.392;13.092;2022-12-29T06:04:04;100002.86;;;15.57;50.16
27304;BME280;14791;52.392;13.092;2022-12-29T06:06:34;99998.69;;;15.59;50.09
27304;BME280;14791;52.392;13.092;2022-12-29T06:09:03;99998.73;;;15.63;50.09
27304;BME280;14791;52.392;13.092;2022-12-29T06:11:32;99995.41;;;15.65;50.05
27304;BME280;14791;52.392;13.092;2022-12-29T06:14:01;100000.15;;;15.67;50.05
27304;BME280;14791;52.392;13.092;2022-12-29T06:16:30;99995.47;;;15.69;50.01
27304;BME280;14791;52.392;13.092;2022-12-29T06:19:01;99997.19;;;15.70;50.03
27304;BME280;14791;52.392;13.092;2022-12-29T06:21:30;99987.13;;;15.72;49.89
27304;BME280;14791;52.392;13.092;2022-12-29T06:24:01;99999.95;;;15.74;49.92
27304;BME280;14791;52.392;13.092;2022-12-29T06:26:30;100006.68;;;15.74;49.90
27304;BME280;14791;52.392;13.092;2022-12-29T06:28:59;100003.69;;;15.77;49.85
27304;BME280;14791;52.392;13.092;2022-12-29T06:31:28;100002.71;;;15.78;49.81
27304;BME280;14791;52.392;13.092;2022-12-29T06:33:57;100009.78;;;15.79;49.84
27304;BME280;14791;52.392;13.092;2022-12-29T06:36:27;100002.05;;;15.80;49.85
27304;BME280;14791;52.392;13.092;2022-12-29T06:38:56;100008.13;;;15.82;49.81
27304;BME280;14791;52.392;13.092;2022-12-29T06:41:25;100010.48;;;15.81;49.81
27304;BME280;14791;52.392;13.092;2022-12-29T06:44:11;100000.70;;;15.80;49.81
27304;BME280;14791;52.392;13.092;2022-12-29T06:46:59;100006.95;;;15.81;49.80
27304;BME280;14791;52.392;13.092;2022-12-29T06:49:28;100008.77;;;15.80;49.83
27304;BME280;14791;52.392;13.092;2022-12-29T06:51:57;100015.67;;;15.79;49.82
27304;BME280;14791;52.392;13.092;2022-12-29T06:54:27;100017.99;;;15.78;49.78
27304;BME280;14791;52.392;13.092;2022-12-29T06:56:57;100025.23;;;15.77;49.80
27304;BME280;14791;52.392;13.092;2022-12-29T06:59:26;100028.22;;;15.74;49.85
27304;BME280;14791;52.392;13.092;2022-12-29T07:01:55;100030.91;;;15.74;49.87
27304;BME280;14791;52.392;13.092;2022-12-29T07:04:24;100026.53;;;15.73;49.84
27304;BME280;14791;52.392;13.092;2022-12-29T07:06:56;100030.84;;;15.70;49.88
27304;BME280;14791;52.392;13.092;2022-12-29T07:09:25;100031.81;;;15.69;49.88
27304;BME280;14791;52.392;13.092;2022-12-29T07:11:53;100039.89;;;15.69;49.90
27304;BME280;14791;52.392;13.092;2022-12-29T07:14:22;100042.21;;;15.68;49.91
27304;BME280;14791;52.392;13.092;2022-12-29T07:16:51;100036.16;;;15.66;49.88
27304;BME280;14791;52.392;13.092;2022-12-29T07:19:20;100038.84;;;15.66;49.89
27304;BME280;14791;52.392;13.092;2022-12-29T07:21:49;100040.83;;;15.64;49.94
27304;BME280;14791;52.392;13.092;2022-12-29T07:24:18;100040.45;;;15.63;49.95
27304;BME280;14791;52.392;13.092;2022-12-29T07:26:47;100050.52;;;15.61;49.97
27304;BME280;14791;52.392;13.092;2022-12-29T07:29:20;100044.78;;;15.60;50.02
27304;BME280;14791;52.392;13.092;2022-12-29T07:31:50;100033.69;;;15.59;50.06
27304;BME280;14791;52.392;13.092;2022-12-29T07:34:41;100036.00;;;15.58;50.11
27304;BME280;14791;52.392;13.092;2022-12-29T07:37:14;100044.92;;;15.58;50.10
27304;BME280;14791;52.392;13.092;2022-12-29T07:39:43;100037.72;;;15.59;50.12
27304;BME280;14791;52.392;13.092;2022-12-29T07:42:12;100023.55;;;15.57;50.18
27304;BME280;14791;52.392;13.092;2022-12-29T07:44:45;100031.97;;;15.58;50.19
27304;BME280;14791;52.392;13.092;2022-12-29T07:47:21;100033.69;;;15.59;50.22
27304;BME280;14791;52.392;13.092;2022-12-29T07:49:55;100026.95;;;15.59;50.25
27304;BME280;14791;52.392;13.092;2022-12-29T07:52:32;100032.17;;;15.60;50.27
27304;BME280;14791;52.392;13.092;2022-12-29T07:55:06;100027.63;;;15.61;50.27
27304;BME280;14791;52.392;13.092;2022-12-29T07:57:39;100035.58;;;15.62;50.27
27304;BME280;14791;52.392;13.092;2022-12-29T08:00:20;100032.88;;;15.62;50.30
27304;BME280;14791;52.392;13.092;2022-12-29T08:02:56;100018.28;;;15.65;50.29
27304;BME280;14791;52.392;13.092;2022-12-29T08:05:25;100015.96;;;15.66;50.29
27304;BME280;14791;52.392;13.092;2022-12-29T08:07:54;100021.18;;;15.67;50.31
27304;BME280;14791;52.392;13.092;2022-12-29T08:10:23;100005.73;;;15.69;50.32
27304;BME280;14791;52.392;13.092;2022-12-29T08:12:52;100016.41;;;15.71;50.38
27304;BME280;14791;52.392;13.092;2022-12-29T08:15:21;100022.84;;;15.74;50.40
27304;BME280;14791;52.392;13.092;2022-12-29T08:17:51;100022.53;;;15.77;50.35
27304;BME280;14791;52.392;13.092;2022-12-29T08:20:20;100025.09;;;15.79;50.27
27304;BME280;14791;52.392;13.092;2022-12-29T08:22:49;100022.23;;;15.80;50.21
27304;BME280;14791;52.392;13.092;2022-12-29T08:25:19;100022.95;;;15.82;50.15
27304;BME280;14791;52.392;13.092;2022-12-29T08:27:48;100021.97;;;15.83;50.15
27304;BME280;14791;52.392;13.092;2022-12-29T08:30:16;100016.58;;;15.83;50.12
27304;BME280;14791;52.392;13.092;2022-12-29T08:32:45;100022.30;;;15.84;50.11
27304;BME280;14791;52.392;13.092;2022-12-29T08:35:14;100024.86;;;15.86;50.02
27304;BME280;14791;52.392;13.092;2022-12-29T08:37:43;100018.27;;;15.84;49.99
27304;BME280;14791;52.392;13.092;2022-12-29T08:40:13;100022.30;;;15.84;50.00
27304;BME280;14791;52.392;13.092;2022-12-29T08:42:42;100029.41;;;15.85;49.96
27304;BME280;14791;52.392;13.092;2022-12-29T08:45:11;100028.33;;;15.82;49.97
27304;BME280;14791;52.392;13.092;2022-12-29T08:47:40;100018.56;;;15.81;49.99
27304;BME280;14791;52.392;13.092;2022-12-29T08:50:09;100022.73;;;15.80;50.00
27304;BME280;14791;52.392;13.092;2022-12-29T08:52:38;100023.24;;;15.79;50.04
27304;BME280;14791;52.392;13.092;2022-12-29T08:55:07;100017.52;;;15.78;50.11
27304;BME280;14791;52.392;13.092;2022-12-29T08:57:36;100015.17;;;15.79;50.18
27304;BME280;14791;52.392;13.092;2022-12-29T09:00:08;100016.84;;;15.80;50.18
27304;BME280;14791;52.392;13.092;2022-12-29T09:02:37;100009.98;;;15.82;50.16
27304;BME280;14791;52.392;13.092;2022-12-29T09:05:06;100018.77;;;15.84;50.12
27304;BME280;14791;52.392;13.092;2022-12-29T09:07:35;100011.20;;;15.83;50.09
27304;BME280;14791;52.392;13.092;2022-12-29T09:10:04;100012.55;;;15.83;50.08
27304;BME280;14791;52.392;13.092;2022-12-29T09:12:34;99999.59;;;15.83;50.10
27304;BME280;14791;52.392;13.092;2022-12-29T09:15:04;100005.11;;;15.81;50.12
27304;BME280;14791;52.392;13.092;2022-12-29T09:17:33;100007.80;;;15.81;50.13
27304;BME280;14791;52.392;13.092;2022-12-29T09:20:16;99990.63;;;15.82;50.17
27304;BME280;14791;52.392;13.092;2022-12-29T09:22:45;100009.48;;;15.82;50.21
27304;BME280;14791;52.392;13.092;2022-12-29T09:25:15;100007.16;;;15.83;50.25
27304;BME280;14791;52.392;13.092;2022-12-29T09:27:44;100010.05;;;15.86;50.29
27304;BME280;14791;52.392;13.092;2022-12-29T09:30:13;99997.64;;;15.89;50.33
27304;BME280;14791;52.392;13.092;2022-12-29T09:32:42;99987.56;;;15.91;50.35
27304;BME280;14791;52.392;13.092;2022-12-29T09:35:12;99989.45;;;15.94;50.33
27304;BME280;14791;52.392;13.092;2022-12-29T09:37:41;99999.95;;;15.98;50.34
27304;BME280;14791;52.392;13.092;2022-12-29T09:40:19;100004.73;;;16.04;50.31
27304;BME280;14791;52.392;13.092;2022-12-29T09:43:00;99984.73;;;16.06;50.33
27304;BME280;14791;52.392;13.092;2022-12-29T09:45:36;99989.54;;;16.12;50.32
27304;BME280;14791;52.392;13.092;2022-12-29T09:48:04;99989.09;;;16.17;50.35
27304;BME280;14791;52.392;13.092;2022-12-29T09:50:37;99989.83;;;16.23;50.36
27304;BME280;14791;52.392;13.092;2022-12-29T09:53:21;99979.31;;;16.30;50.39
27304;BME280;14791;52.392;13.092;2022-12-29T09:55:58;99996.07;;;16.37;50.38
27304;BME280;14791;52.392;13.092;2022-12-29T09:58:57;99988.10;;;16.46;50.33
27304;BME280;14791;52.392;13.092;2022-12-29T10:04:12;100007.16;;;16.62;50.16
27304;BME280;14791;52.392;13.092;2022-12-29T10:15:28;99980.16;;;16.90;49.94
27304;BME280;14791;52.392;13.092;2022-12-29T10:17:48;99985.29;;;16.97;49.84
27304;BME280;14791;52.392;13.092;2022-12-29T10:20:44;99990.41;;;17.04;49.76
27304;BME280;14791;52.392;13.092;2022-12-29T10:25:41;99974.56;;;17.23;49.79
27304;BME280;14791;52.392;13.092;2022-12-29T10:28:36;99984.94;;;17.32;49.71
27304;BME280;14791;52.392;13.092;2022-12-29T10:31:25;99976.23;;;17.42;49.55
27304;BME280;14791;52.392;13.092;2022-12-29T10:33:59;99981.68;;;17.50;49.44
27304;BME280;14791;52.392;13.092;2022-12-29T10:36:39;99989.49;;;17.57;49.11
27304;BME280;14791;52.392;13.092;2022-12-29T10:40:11;99995.30;;;17.62;49.00
27304;BME280;14791;52.392;13.092;2022-12-29T10:41:55;99981.65;;;17.68;48.91
27304;BME280;14791;52.392;13.092;2022-12-29T10:44:19;99971.73;;;17.73;48.90
27304;BME280;14791;52.392;13.092;2022-12-29T10:46:54;99977.64;;;17.76;48.88
27304;BME280;14791;52.392;13.092;2022-12-29T10:49:21;99988.00;;;17.81;48.80
27304;BME280;14791;52.392;13.092;2022-12-29T10:51:51;99981.94;;;17.83;48.74
27304;BME280;14791;52.392;13.092;2022-12-29T11:00:01;99985.70;;;17.90;48.43
27304;BME280;14791;52.392;13.092;2022-12-29T11:05:33;100004.60;;;17.90;48.38
27304;BME280;14791;52.392;13.092;2022-12-29T11:08:03;99996.17;;;17.89;48.43
27304;BME280;14791;52.392;13.092;2022-12-29T11:10:43;99991.94;;;17.87;48.44
27304;BME280;14791;52.392;13.092;2022-12-29T11:13:15;99998.44;;;17.80;48.56
27304;BME280;14791;52.392;13.092;2022-12-29T11:15:49;100004.28;;;17.71;48.60
27304;BME280;14791;52.392;13.092;2022-12-29T11:18:26;99997.30;;;17.64;48.59
27304;BME280;14791;52.392;13.092;2022-12-29T11:20:59;99991.67;;;17.54;48.78
27304;BME280;14791;52.392;13.092;2022-12-29T11:23:36;99992.80;;;17.43;49.00
27304;BME280;14791;52.392;13.092;2022-12-29T11:28:45;99993.27;;;17.20;49.40
27304;BME280;14791;52.392;13.092;2022-12-29T11:31:21;100006.65;;;17.08;49.56
27304;BME280;14791;52.392;13.092;2022-12-29T11:33:49;100003.84;;;16.96;49.76
27304;BME280;14791;52.392;13.092;2022-12-29T11:36:20;99993.27;;;16.85;49.92
27304;BME280;14791;52.392;13.092;2022-12-29T11:38:53;99997.99;;;16.73;50.13
27304;BME280;14791;52.392;13.092;2022-12-29T11:41:26;100010.19;;;16.63;50.38
27304;BME280;14791;52.392;13.092;2022-12-29T11:44:01;100017.19;;;16.56;50.73
27304;BME280;14791;52.392;13.092;2022-12-29T11:46:37;100018.79;;;16.49;50.87
27304;BME280;14791;52.392;13.092;2022-12-29T11:49:02;100016.84;;;16.41;51.12
27304;BME280;14791;52.392;13.092;2022-12-29T11:51:45;100021.78;;;16.32;51.34
27304;BME280;14791;52.392;13.092;2022-12-29T11:54:26;100026.51;;;16.20;51.84
27304;BME280;14791;52.392;13.092;2022-12-29T11:56:57;100026.28;;;16.04;52.56
27304;BME280;14791;52.392;13.092;2022-12-29T11:59:41;100024.36;;;15.86;53.54
27304;BME280;14791;52.392;13.092;2022-12-29T12:02:22;100017.75;;;15.71;54.26
27304;BME280;14791;52.392;13.092;2022-12-29T12:04:53;100022.68;;;15.56;54.76
27304;BME280;14791;52.392;13.092;2022-12-29T12:07:32;100014.20;;;15.41;55.09
27304;BME280;14791;52.392;13.092;2022-12-29T12:10:00;100023.80;;;15.30;55.37
27304;BME280;14791;52.392;13.092;2022-12-29T12:12:35;100027.97;;;15.19;55.52
27304;BME280;14791;52.392;13.092;2022-12-29T12:15:05;100019.05;;;15.08;55.65
27304;BME280;14791;52.392;13.092;2022-12-29T12:17:53;100020.23;;;15.00;55.87
27304;BME280;14791;52.392;13.092;2022-12-29T12:20:27;100014.22;;;14.93;56.24
27304;BME280;14791;52.392;13.092;2022-12-29T12:23:14;100022.83;;;14.86;56.33
27304;BME280;14791;52.392;13.092;2022-12-29T12:26:32;100010.17;;;14.83;56.31
27304;BME280;14791;52.392;13.092;2022-12-29T12:30:59;100019.07;;;14.74;56.34
27304;BME280;14791;52.392;13.092;2022-12-29T12:33:41;100015.95;;;14.68;56.49
27304;BME280;14791;52.392;13.092;2022-12-29T12:36:16;100022.80;;;14.67;56.60
27304;BME280;14791;52.392;13.092;2022-12-29T12:39:05;100003.27;;;14.65;56.62
27304;BME280;14791;52.392;13.092;2022-12-29T12:41:44;100008.42;;;14.62;56.54
27304;BME280;14791;52.392;13.092;2022-12-29T12:47:01;100006.37;;;14.60;56.70
27304;BME280;14791;52.392;13.092;2022-12-29T13:03:47;100023.30;;;14.66;56.76
27304;BME280;14791;52.392;13.092;2022-12-29T13:06:34;100017.02;;;14.72;57.01
27304;BME280;14791;52.392;13.092;2022-12-29T13:09:12;100022.98;;;14.85;57.13
27304;BME280;14791;52.392;13.092;2022-12-29T13:20:01;100021.62;;;15.72;56.67
27304;BME280;14791;52.392;13.092;2022-12-29T13:22:38;100020.02;;;15.89;56.40
27304;BME280;14791;52.392;13.092;2022-12-29T13:25:26;100026.72;;;15.99;56.05
27304;BME280;14791;52.392;13.092;2022-12-29T13:30:39;100035.06;;;16.06;55.71
27304;BME280;14791;52.392;13.092;2022-12-29T13:36:19;100033.92;;;16.08;55.60
27304;BME280;14791;52.392;13.092;2022-12-29T13:38:44;100030.05;;;16.07;55.56
27304;BME280;14791;52.392;13.092;2022-12-29T13:41:29;100033.72;;;16.06;55.51
27304;BME280;14791;52.392;13.092;2022-12-29T13:43:57;100034.94;;;16.07;55.64
27304;BME280;14791;52.392;13.092;2022-12-29T13:46:29;100031.23;;;16.08;55.78
27304;BME280;14791;52.392;13.092;2022-12-29T13:49:02;100029.95;;;16.12;55.80
27304;BME280;14791;52.392;13.092;2022-12-29T13:51:31;100024.77;;;16.15;55.61
27304;BME280;14791;52.392;13.092;2022-12-29T13:55:00;100022.41;;;16.16;55.44
27304;BME280;14791;52.392;13.092;2022-12-29T13:56:54;100036.89;;;16.15;55.33
27304;BME280;14791;52.392;13.092;2022-12-29T13:59:27;100031.80;;;16.12;55.27
27304;BME280;14791;52.392;13.092;2022-12-29T14:02:03;100047.59;;;16.11;55.27
27304;BME280;14791;52.392;13.092;2022-12-29T14:04:32;100035.44;;;16.07;55.27
27304;BME280;14791;52.392;13.092;2022-12-29T14:07:04;100041.47;;;16.05;55.24
27304;BME280;14791;52.392;13.092;2022-12-29T14:12:20;100037.66;;;15.98;55.19
27304;BME280;14791;52.392;13.092;2022-12-29T14:14:50;100034.90;;;15.93;55.21
27304;BME280;14791;52.392;13.092;2022-12-29T14:17:21;100046.31;;;15.91;55.20
27304;BME280;14791;52.392;13.092;2022-12-29T14:19:52;100045.77;;;15.88;55.25
27304;BME280;14791;52.392;13.092;2022-12-29T14:22:26;100046.91;;;15.85;55.24
27304;BME280;14791;52.392;13.092;2022-12-29T14:24:56;100047.17;;;15.82;55.21
27304;BME280;14791;52.392;13.092;2022-12-29T14:27:42;100046.00;;;15.81;55.16
27304;BME280;14791;52.392;13.092;2022-12-29T14:33:10;100050.97;;;15.76;55.23
27304;BME280;14791;52.392;13.092;2022-12-29T14:35:44;100063.22;;;15.74;55.26
27304;BME280;14791;52.392;13.092;2022-12-29T14:38:23;100066.25;;;15.75;55.33
27304;BME280;14791;52.392;13.092;2022-12-29T14:41:15;100065.78;;;15.76;55.34
27304;BME280;14791;52.392;13.092;2022-12-29T14:43:26;100065.61;;;15.77;55.28
27304;BME280;14791;52.392;13.092;2022-12-29T14:46:00;100075.88;;;15.78;55.23